createdAt,value
2022-11-27T00:02:58.750Z,4.80
2022-11-27T00:06:00.699Z,4.90
2022-11-27T00:09:05.791Z,4.90
2022-11-27T00:12:07.718Z,4.90
2022-11-27T00:15:13.420Z,5.00
2022-11-27T00:18:17.887Z,5.00
2022-11-27T00:21:21.228Z,4.80
2022-11-27T00:24:23.088Z,4.40
2022-11-27T00:27:24.986Z,4.30
2022-11-27T00:30:26.856Z,4.40
2022-11-27T00:33:29.065Z,4.40
2022-11-27T00:36:32.855Z,4.40
2022-11-27T00:39:35.053Z,4.40
2022-11-27T00:42:37.040Z,4.40
2022-11-27T00:45:39.055Z,4.40
2022-11-27T00:48:41.640Z,4.40
2022-11-27T00:51:44.090Z,4.50
2022-11-27T00:54:45.958Z,4.50
2022-11-27T00:57:47.860Z,4.70
2022-11-27T01:00:56.737Z,4.60
2022-11-27T01:04:00.239Z,4.60
2022-11-27T01:07:02.145Z,4.50
2022-11-27T01:10:04.341Z,4.60
2022-11-27T01:13:06.191Z,4.70
2022-11-27T01:16:15.209Z,4.70
2022-11-27T01:19:17.142Z,4.60
2022-11-27T01:22:19.019Z,4.60
2022-11-27T01:25:24.205Z,4.50
2022-11-27T01:28:29.143Z,4.50
2022-11-27T01:31:32.963Z,4.60
2022-11-27T01:34:35.218Z,4.50
2022-11-27T01:37:37.131Z,4.80
2022-11-27T01:40:38.967Z,4.60
2022-11-27T01:43:40.776Z,4.60
2022-11-27T01:46:44.112Z,4.70
2022-11-27T01:49:53.698Z,4.60
2022-11-27T01:52:59.871Z,4.40
2022-11-27T01:56:02.240Z,4.40
2022-11-27T01:59:04.580Z,4.50
2022-11-27T02:02:06.584Z,4.60
2022-11-27T02:05:09.336Z,4.60
2022-11-27T02:08:13.999Z,4.60
2022-11-27T02:11:26.410Z,4.80
2022-11-27T02:14:34.187Z,4.90
2022-11-27T02:18:18.886Z,5.00
2022-11-27T02:21:34.547Z,5.00
2022-11-27T02:24:59.964Z,5.10
2022-11-27T02:28:32.212Z,5.10
2022-11-27T02:31:58.847Z,5.10
2022-11-27T02:35:18.625Z,5.10
2022-11-27T02:38:44.740Z,5.20
2022-11-27T02:42:02.561Z,5.30
2022-11-27T02:45:10.228Z,5.40
2022-11-27T02:48:15.390Z,5.40
2022-11-27T02:51:22.447Z,5.40
2022-11-27T02:54:28.540Z,5.30
2022-11-27T02:57:32.279Z,5.30
2022-11-27T03:00:37.590Z,5.30
2022-11-27T03:03:44.168Z,5.10
2022-11-27T03:06:50.596Z,4.90
2022-11-27T03:09:58.678Z,5.00
2022-11-27T03:13:02.923Z,4.90
2022-11-27T03:16:12.530Z,4.90
2022-11-27T03:19:24.624Z,4.70
2022-11-27T03:22:26.713Z,4.60
2022-11-27T03:25:29.073Z,4.60
2022-11-27T03:28:31.645Z,4.70
2022-11-27T03:31:33.770Z,4.60
2022-11-27T03:34:36.659Z,4.80
2022-11-27T03:37:39.071Z,4.80
2022-11-27T03:41:23.435Z,4.60
2022-11-27T03:45:02.796Z,4.90
2022-11-27T03:48:21.152Z,5.00
2022-11-27T03:51:35.101Z,5.00
2022-11-27T03:54:49.290Z,4.70
2022-11-27T03:58:01.910Z,4.80
2022-11-27T04:01:07.953Z,4.90
2022-11-27T04:04:10.055Z,5.20
2022-11-27T04:07:16.926Z,5.00
2022-11-27T04:10:21.574Z,5.00
2022-11-27T04:13:25.834Z,4.90
2022-11-27T04:16:27.961Z,4.60
2022-11-27T04:19:30.053Z,4.80
2022-11-27T04:22:31.997Z,4.80
2022-11-27T04:25:33.977Z,4.80
2022-11-27T04:28:36.177Z,5.00
2022-11-27T04:31:40.659Z,5.00
2022-11-27T04:34:42.799Z,5.10
2022-11-27T04:40:52.918Z,4.90
2022-11-27T04:43:54.941Z,4.70
2022-11-27T04:46:57.061Z,4.80
2022-11-27T04:49:58.932Z,4.60
2022-11-27T04:53:00.895Z,4.60
2022-11-27T04:56:02.742Z,4.70
2022-11-27T04:59:05.729Z,4.60
2022-11-27T05:02:07.530Z,4.40
2022-11-27T05:05:09.577Z,4.80
2022-11-27T05:08:11.414Z,4.90
2022-11-27T05:11:15.480Z,4.50
2022-11-27T05:14:17.321Z,4.60
2022-11-27T05:17:19.324Z,4.40
2022-11-27T05:20:21.170Z,4.40
2022-11-27T05:23:23.103Z,4.60
2022-11-27T05:26:24.971Z,4.40
2022-11-27T05:29:27.106Z,4.40
2022-11-27T05:32:29.025Z,4.50
2022-11-27T05:35:30.892Z,4.40
2022-11-27T05:38:32.900Z,4.50
2022-11-27T05:41:36.245Z,4.40
2022-11-27T05:44:40.697Z,4.40
2022-11-27T05:47:42.788Z,4.50
2022-11-27T05:50:44.640Z,4.40
2022-11-27T05:53:47.687Z,4.40
2022-11-27T05:56:49.520Z,4.40
2022-11-27T05:59:51.419Z,4.40
2022-11-27T06:02:53.418Z,4.70
2022-11-27T06:05:55.771Z,4.50
2022-11-27T06:08:57.901Z,4.60
2022-11-27T06:11:59.820Z,4.50
2022-11-27T06:15:01.771Z,4.70
2022-11-27T06:18:03.746Z,4.80
2022-11-27T06:21:10.746Z,4.50
2022-11-27T06:24:12.677Z,4.50
2022-11-27T06:27:14.558Z,4.60
2022-11-27T06:30:16.916Z,4.60
2022-11-27T06:33:18.703Z,4.30
2022-11-27T06:36:21.948Z,4.40
2022-11-27T06:39:23.809Z,4.40
2022-11-27T06:42:28.380Z,4.40
2022-11-27T06:45:30.361Z,4.40
2022-11-27T06:48:35.058Z,4.50
2022-11-27T06:51:36.998Z,4.50
2022-11-27T06:54:39.073Z,4.40
2022-11-27T06:57:41.236Z,4.40
2022-11-27T07:00:43.136Z,4.70
2022-11-27T07:03:45.270Z,4.90
2022-11-27T07:06:47.101Z,4.70
2022-11-27T07:09:48.994Z,4.50
2022-11-27T07:12:50.832Z,4.50
2022-11-27T07:15:52.688Z,4.40
2022-11-27T07:18:57.386Z,4.60
2022-11-27T07:21:59.259Z,4.90
2022-11-27T07:25:01.079Z,4.80
2022-11-27T07:28:03.032Z,4.90
2022-11-27T07:31:05.750Z,4.60
2022-11-27T07:34:14.079Z,4.90
2022-11-27T07:37:17.926Z,4.90
2022-11-27T07:40:19.867Z,4.80
2022-11-27T07:43:21.686Z,4.80
2022-11-27T07:46:24.565Z,4.90
2022-11-27T07:49:26.416Z,4.90
2022-11-27T07:52:28.577Z,5.00
2022-11-27T07:55:30.404Z,5.00
2022-11-27T07:58:32.425Z,5.10
2022-11-27T08:01:34.394Z,5.10
2022-11-27T08:04:36.387Z,5.20
2022-11-27T08:07:38.507Z,5.30
2022-11-27T08:10:43.210Z,5.00
2022-11-27T08:13:45.222Z,5.20
2022-11-27T08:16:47.356Z,5.30
2022-11-27T08:19:49.298Z,5.00
2022-11-27T08:22:51.537Z,5.00
2022-11-27T08:25:53.735Z,5.10
2022-11-27T08:28:56.896Z,4.90
2022-11-27T08:31:58.874Z,5.30
2022-11-27T08:35:01.025Z,5.40
2022-11-27T08:38:02.936Z,5.40
2022-11-27T08:41:06.376Z,5.40
2022-11-27T08:44:09.568Z,5.60
2022-11-27T08:47:11.522Z,5.70
2022-11-27T08:50:13.434Z,5.60
2022-11-27T08:53:18.341Z,6.10
2022-11-27T08:56:26.884Z,6.00
2022-11-27T08:59:28.754Z,6.10
2022-11-27T09:02:30.588Z,6.50
2022-11-27T09:05:33.291Z,6.70
2022-11-27T09:08:37.759Z,7.10
2022-11-27T09:11:39.674Z,7.00
2022-11-27T09:14:44.012Z,6.80
2022-11-27T09:17:46.225Z,6.50
2022-11-27T09:21:02.958Z,6.40
2022-11-27T09:24:05.635Z,6.60
2022-11-27T09:27:07.890Z,6.40
2022-11-27T09:30:12.181Z,6.40
2022-11-27T09:33:14.559Z,6.40
2022-11-27T09:36:22.862Z,6.30
2022-11-27T09:39:25.420Z,6.40
2022-11-27T09:42:47.913Z,6.50
2022-11-27T09:45:55.235Z,7.00
2022-11-27T09:49:00.080Z,7.00
2022-11-27T09:52:36.537Z,7.30
2022-11-27T09:55:44.702Z,7.30
2022-11-27T09:58:59.703Z,7.40
2022-11-27T10:02:01.827Z,7.20
2022-11-27T10:05:15.490Z,7.10
2022-11-27T10:08:27.458Z,7.00
2022-11-27T10:11:42.201Z,6.80
2022-11-27T10:14:53.921Z,7.00
2022-11-27T10:18:26.175Z,6.60
2022-11-27T10:21:45.969Z,6.70
2022-11-27T10:24:59.337Z,6.80
2022-11-27T10:28:10.711Z,6.70
2022-11-27T10:31:37.213Z,6.70
2022-11-27T10:34:53.170Z,7.00
2022-11-27T10:38:10.984Z,6.90
2022-11-27T10:41:49.309Z,6.90
2022-11-27T10:45:23.029Z,7.10
2022-11-27T10:48:28.022Z,6.70
2022-11-27T10:51:36.165Z,6.70
2022-11-27T10:54:40.053Z,6.70
2022-11-27T10:58:18.591Z,6.70
2022-11-27T11:01:22.886Z,6.70
2022-11-27T11:04:38.739Z,6.90
2022-11-27T11:07:41.335Z,6.90
2022-11-27T11:11:05.276Z,6.60
2022-11-27T11:14:24.193Z,6.50
2022-11-27T11:17:35.470Z,6.50
2022-11-27T11:20:37.902Z,6.40
2022-11-27T11:23:41.702Z,6.50
2022-11-27T11:27:08.797Z,6.70
2022-11-27T11:30:23.108Z,6.80
2022-11-27T11:33:27.119Z,6.80
2022-11-27T11:36:30.134Z,7.20
2022-11-27T11:39:39.396Z,7.00
2022-11-27T11:43:07.293Z,7.20
2022-11-27T11:46:24.233Z,7.20
2022-11-27T11:49:29.637Z,7.10
2022-11-27T12:03:30.862Z,7.40
2022-11-27T12:06:46.333Z,7.40
2022-11-27T12:10:26.742Z,7.40
2022-11-27T12:14:02.950Z,7.50
2022-11-27T12:17:47.885Z,7.40
2022-11-27T12:21:18.295Z,7.20
2022-11-27T12:24:47.461Z,7.40
2022-11-27T12:28:23.166Z,7.60
2022-11-27T12:31:46.347Z,7.70
2022-11-27T12:35:13.147Z,7.80
2022-11-27T12:38:31.471Z,7.70
2022-11-27T12:41:45.425Z,7.80
2022-11-27T12:44:52.844Z,7.90
2022-11-27T12:47:58.464Z,7.80
2022-11-27T12:51:23.472Z,7.70
2022-11-27T12:54:45.106Z,7.70
2022-11-27T12:57:56.853Z,7.70
2022-11-27T13:01:15.247Z,7.70
2022-11-27T13:04:48.058Z,7.70
2022-11-27T13:08:08.839Z,7.80
2022-11-27T13:11:13.309Z,7.70
2022-11-27T13:14:21.397Z,7.80
2022-11-27T13:17:29.763Z,7.70
2022-11-27T13:20:36.964Z,7.90
2022-11-27T13:23:38.914Z,7.90
2022-11-27T13:26:40.831Z,7.70
2022-11-27T13:30:00.965Z,7.80
2022-11-27T13:33:04.747Z,7.80
2022-11-27T13:36:07.985Z,7.80
2022-11-27T13:39:29.713Z,7.90
2022-11-27T13:42:42.697Z,7.90
2022-11-27T13:45:44.806Z,7.80
2022-11-27T13:48:54.907Z,7.90
2022-11-27T13:52:12.571Z,8.00
2022-11-27T13:55:50.579Z,7.90
2022-11-27T13:58:54.919Z,7.80
2022-11-27T14:02:05.706Z,7.70
2022-11-27T14:05:08.102Z,7.70
2022-11-27T14:08:30.935Z,7.70
2022-11-27T14:11:45.698Z,7.60
2022-11-27T14:15:16.880Z,7.70
2022-11-27T14:18:20.761Z,7.60
2022-11-27T14:21:42.078Z,7.40
2022-11-27T14:24:44.524Z,7.40
2022-11-27T14:27:48.430Z,7.60
2022-11-27T14:30:56.039Z,7.40
2022-11-27T14:37:27.899Z,7.40
2022-11-27T14:40:29.743Z,7.40
2022-11-27T14:43:31.653Z,7.40
2022-11-27T14:46:36.815Z,7.40
2022-11-27T14:49:39.199Z,7.50
2022-11-27T14:52:51.798Z,7.50
2022-11-27T14:55:57.501Z,7.40
2022-11-27T14:59:00.831Z,7.40
2022-11-27T15:02:02.719Z,7.40
2022-11-27T15:05:06.111Z,7.40
2022-11-27T15:08:10.284Z,7.60
2022-11-27T15:11:30.048Z,7.40
2022-11-27T15:14:38.115Z,7.40
2022-11-27T15:17:43.792Z,7.30
2022-11-27T15:20:46.355Z,7.20
2022-11-27T15:23:49.521Z,7.20
2022-11-27T15:27:07.249Z,7.20
2022-11-27T15:30:12.341Z,7.40
2022-11-27T15:33:34.245Z,7.10
2022-11-27T15:36:41.701Z,7.10
2022-11-27T15:39:52.599Z,7.00
2022-11-27T15:42:54.597Z,7.10
2022-11-27T15:45:57.011Z,7.10
2022-11-27T15:48:59.220Z,7.20
2022-11-27T15:52:01.231Z,7.10
2022-11-27T15:55:03.291Z,7.10
2022-11-27T15:58:05.446Z,7.00
2022-11-27T16:01:07.852Z,7.20
2022-11-27T16:04:09.928Z,7.20
2022-11-27T16:07:11.940Z,7.30
2022-11-27T16:10:14.206Z,7.30
2022-11-27T16:13:16.404Z,7.40
2022-11-27T16:16:18.748Z,7.30
2022-11-27T16:19:20.749Z,7.40
2022-11-27T16:22:22.849Z,7.30
2022-11-27T16:25:24.858Z,7.30
2022-11-27T16:28:28.287Z,7.30
2022-11-27T16:31:30.346Z,7.30
2022-11-27T16:34:32.490Z,7.30
2022-11-27T16:37:34.487Z,7.20
2022-11-27T16:40:37.209Z,7.20
2022-11-27T16:43:44.492Z,7.20
2022-11-27T16:46:46.433Z,7.10
2022-11-27T16:49:49.061Z,7.20
2022-11-27T16:52:54.399Z,7.30
2022-11-27T16:55:58.466Z,7.20
2022-11-27T16:59:03.005Z,7.30
2022-11-27T17:02:05.851Z,7.30
2022-11-27T17:05:08.453Z,7.30
2022-11-27T17:08:10.503Z,7.30
2022-11-27T17:11:21.150Z,7.30
2022-11-27T17:14:23.114Z,7.30
2022-11-27T17:17:24.969Z,7.20
2022-11-27T17:20:29.438Z,7.10
2022-11-27T17:23:31.384Z,7.20
2022-11-27T17:26:34.128Z,7.20
2022-11-27T17:29:36.138Z,7.20
2022-11-27T17:32:38.292Z,7.10
2022-11-27T17:35:41.175Z,7.20
2022-11-27T17:38:43.055Z,7.30
2022-11-27T17:41:45.086Z,7.40
2022-11-27T17:44:47.131Z,7.30
2022-11-27T17:47:49.438Z,7.30
2022-11-27T17:50:52.130Z,7.20
2022-11-27T17:53:53.987Z,7.20
2022-11-27T17:56:56.182Z,7.20
2022-11-27T17:59:58.033Z,7.10
2022-11-27T18:03:04.661Z,7.00
2022-11-27T18:06:09.080Z,7.00
2022-11-27T18:09:11.293Z,7.10
2022-11-27T18:12:13.420Z,7.20
2022-11-27T18:15:15.485Z,7.20
2022-11-27T18:18:17.804Z,7.30
2022-11-27T18:21:20.894Z,7.30
2022-11-27T18:24:24.269Z,7.20
2022-11-27T18:27:26.555Z,7.00
2022-11-27T18:30:28.444Z,7.00
2022-11-27T18:33:30.332Z,6.90
2022-11-27T18:36:32.260Z,7.00
2022-11-27T18:39:35.329Z,7.00
2022-11-27T18:42:37.271Z,7.10
2022-11-27T18:45:39.261Z,7.20
2022-11-27T18:48:42.806Z,7.20
2022-11-27T18:51:44.706Z,7.30
2022-11-27T18:54:47.672Z,7.30
2022-11-27T18:57:49.671Z,7.20
2022-11-27T19:00:51.641Z,7.40
2022-11-27T19:03:54.626Z,7.30
2022-11-27T19:06:56.661Z,7.30
2022-11-27T19:09:58.495Z,7.20
2022-11-27T19:13:00.638Z,7.20
2022-11-27T19:16:12.576Z,7.20
2022-11-27T19:19:52.718Z,7.30
2022-11-27T19:22:39.277Z,7.20
2022-11-27T19:25:42.175Z,7.30
2022-11-27T19:28:44.485Z,7.30
2022-11-27T19:31:46.685Z,7.20
2022-11-27T19:34:50.605Z,7.30
2022-11-27T19:37:52.959Z,7.20
2022-11-27T19:40:55.761Z,7.30
2022-11-27T19:44:04.855Z,7.40
2022-11-27T19:47:07.647Z,7.30
2022-11-27T19:50:09.963Z,7.30
2022-11-27T19:53:12.395Z,7.30
2022-11-27T19:56:14.274Z,7.30
2022-11-27T19:59:16.135Z,7.40
2022-11-27T20:02:18.181Z,7.40
2022-11-27T20:05:20.306Z,7.40
2022-11-27T20:08:25.505Z,7.40
2022-11-27T20:11:33.931Z,7.40
2022-11-27T20:14:36.767Z,7.40
2022-11-27T20:17:38.645Z,7.40
2022-11-27T20:20:40.613Z,7.30
2022-11-27T20:23:44.755Z,7.40
2022-11-27T20:26:46.953Z,7.40
2022-11-27T20:29:48.810Z,7.30
2022-11-27T20:32:51.005Z,7.40
2022-11-27T20:35:53.253Z,7.40
2022-11-27T20:38:55.382Z,7.40
2022-11-27T20:41:58.301Z,7.40
2022-11-27T20:45:00.567Z,7.40
2022-11-27T20:48:02.672Z,7.40
2022-11-27T20:51:07.155Z,7.40
2022-11-27T20:54:11.519Z,7.40
2022-11-27T20:57:13.540Z,7.40
2022-11-27T21:00:16.014Z,7.40
2022-11-27T21:03:18.074Z,7.40
2022-11-27T21:06:23.185Z,7.40
2022-11-27T21:09:25.108Z,7.40
2022-11-27T21:12:27.162Z,7.20
2022-11-27T21:15:29.160Z,7.40
2022-11-27T21:18:31.196Z,7.40
2022-11-27T21:21:34.762Z,7.40
2022-11-27T21:24:36.699Z,7.40
2022-11-27T21:27:39.036Z,7.20
2022-11-27T21:30:40.915Z,7.30
2022-11-27T21:33:50.653Z,7.20
2022-11-27T21:36:52.773Z,7.10
2022-11-27T21:39:54.668Z,7.20
2022-11-27T21:42:56.692Z,7.20
2022-11-27T21:46:04.834Z,7.10
2022-11-27T21:49:07.169Z,6.90
2022-11-27T21:52:09.113Z,6.90
2022-11-27T21:55:12.320Z,7.10
2022-11-27T21:58:14.991Z,7.20
2022-11-27T22:01:19.854Z,7.00
2022-11-27T22:04:21.830Z,6.90
2022-11-27T22:07:23.829Z,6.80
2022-11-27T22:10:25.999Z,6.70
2022-11-27T22:13:28.184Z,6.80
2022-11-27T22:16:33.606Z,7.00
2022-11-27T22:19:36.500Z,7.00
2022-11-27T22:22:38.585Z,7.10
2022-11-27T22:25:40.512Z,7.20
2022-11-27T22:28:43.490Z,7.10
2022-11-27T22:31:45.823Z,7.10
2022-11-27T22:34:51.036Z,7.10
2022-11-27T22:37:53.945Z,7.30
2022-11-27T22:40:58.124Z,7.20
2022-11-27T22:44:00.546Z,7.40
2022-11-27T22:47:02.894Z,7.20
2022-11-27T22:50:05.472Z,7.20
2022-11-27T22:53:07.858Z,7.30
2022-11-27T22:56:12.294Z,7.30
2022-11-27T23:02:38.460Z,7.20
2022-11-27T23:05:44.606Z,7.20
2022-11-27T23:08:47.551Z,7.20
2022-11-27T23:11:49.488Z,7.20
2022-11-27T23:14:51.421Z,7.30
2022-11-27T23:17:53.305Z,7.30
2022-11-27T23:20:55.208Z,7.40
2022-11-27T23:23:57.012Z,7.40
2022-11-27T23:26:58.847Z,7.20
2022-11-27T23:30:00.691Z,7.20
2022-11-27T23:33:03.068Z,7.10
2022-11-27T23:36:06.710Z,7.10
2022-11-27T23:39:11.037Z,7.20
2022-11-27T23:42:12.877Z,7.20
2022-11-27T23:45:14.891Z,7.20
2022-11-27T23:48:16.786Z,7.20
2022-11-27T23:51:28.124Z,7.30
2022-11-27T23:54:29.986Z,7.10
2022-11-27T23:57:31.860Z,7.10
